Balm, Florida
Current Conditions -  °F | °C
As of 2:58 PM on Saturday 20 Dec 2014 (Local Time) from KMCF Reporting Station
Broken Clouds Broken Clouds  
Wind Chill: 76°   Ceiling: 9500
Heat Index: 78°   Visibility: 10mi
Dew Point: 59°   Wind: 5mph
Humidity: 55%   Direction: 230°SW
Pressure: 30.04"   Gusts: NA
Location:  27.76°N, 82.26°W
Report Text: KMCF 201958Z AUTO 23004KT 10SM BKN095 BKN140 25/15 A3004 RMK AO2 SLP176 T02450149 $
Loading
Personal Weather Stations






























Interactive Weather Map New forecast layout! Learn more

10-Day Weather Forecast

Advertisements
Track Severe Weather on mobile